LRBM - BAIA MARE / BAIA MARE

Compiled: 11:32:12 on 21/04/2018

Latest METAR/SPECI Reports

METAR LRBM 211130Z AUTO /////KT //// FEW095/// SCT240/// ///// Q////=

Previous reports

METAR LRBM 211130Z /////KT CAVOK ///// Q1020=
METAR LRBM 211100Z AUTO /////KT //// FEW016/// SCT210/// ///// Q////=
METAR LRBM 211100Z /////KT CAVOK ///// Q1020=
METAR LRBM 211030Z AUTO /////KT //// FEW025/// SCT240/// ///// Q////=

Latest TAF report

TAF LRBM 211100Z 2112/2121 VRB04KT CAVOK=

Valid WARNINGS

No valid warnings for LRBM